createdAt,value
2022-11-13T00:01:54.807Z,-7.39
2022-11-13T00:05:19.524Z,-7.44
2022-11-13T00:08:47.636Z,-7.46
2022-11-13T00:12:19.366Z,-7.46
2022-11-13T00:16:02.011Z,-7.50
2022-11-13T00:19:44.222Z,-7.44
2022-11-13T00:26:43.992Z,-7.39
2022-11-13T00:45:10.524Z,-7.58
2022-11-13T00:53:18.252Z,-7.54
2022-11-13T00:57:43.223Z,-7.47
2022-11-13T01:01:11.258Z,-7.43
2022-11-13T01:04:54.956Z,-7.37
2022-11-13T01:09:02.803Z,-7.33
2022-11-13T01:12:47.425Z,-7.23
2022-11-13T01:16:11.153Z,-7.18
2022-11-13T01:19:37.003Z,-7.24
2022-11-13T01:22:58.774Z,-7.13
2022-11-13T01:26:25.216Z,-7.13
2022-11-13T01:29:49.736Z,-7.20
2022-11-13T01:34:15.144Z,-7.18
2022-11-13T01:37:44.123Z,-7.20
2022-11-13T01:46:26.491Z,-7.06
2022-11-13T01:50:24.914Z,-6.96
2022-11-13T01:53:55.125Z,-6.84
2022-11-13T02:01:14.561Z,-6.58
2022-11-13T02:04:42.195Z,-6.53
2022-11-13T02:08:04.846Z,-6.36
2022-11-13T02:13:02.316Z,-6.23
2022-11-13T02:16:48.584Z,-6.01
2022-11-13T02:20:14.495Z,-5.91
2022-11-13T02:24:16.077Z,-5.84
2022-11-13T02:27:43.743Z,-5.56
2022-11-13T02:31:11.182Z,-5.49
2022-11-13T02:49:02.658Z,-4.81
2022-11-13T02:52:29.710Z,-4.69
2022-11-13T03:06:08.226Z,-4.39
2022-11-13T03:10:18.815Z,-4.15
2022-11-13T03:14:25.061Z,-3.98
2022-11-13T03:17:49.600Z,-3.77
2022-11-13T03:21:22.371Z,-3.63
2022-11-13T03:24:47.145Z,-3.46
2022-11-13T03:28:23.540Z,-3.42
2022-11-13T03:32:01.399Z,-3.25
2022-11-13T03:35:32.644Z,-3.22
2022-11-13T03:38:56.824Z,-3.21
2022-11-13T03:42:56.528Z,-3.01
2022-11-13T03:46:24.489Z,-2.94
2022-11-13T03:50:11.620Z,-2.86
2022-11-13T03:53:45.480Z,-2.79
2022-11-13T03:57:07.299Z,-2.63
2022-11-13T04:00:35.248Z,-2.53
2022-11-13T04:03:58.903Z,-2.41
2022-11-13T04:07:23.944Z,-2.28
2022-11-13T04:10:51.295Z,-2.17
2022-11-13T04:14:41.300Z,-2.04
2022-11-13T04:18:15.481Z,-1.91
2022-11-13T04:21:48.547Z,-1.90
2022-11-13T04:25:21.551Z,-1.79
2022-11-13T04:28:45.725Z,-1.70
2022-11-13T04:32:15.089Z,-1.68
2022-11-13T04:44:46.793Z,-1.28
2022-11-13T04:48:14.630Z,-1.25
2022-11-13T05:29:28.254Z,-0.77
2022-11-13T05:32:55.113Z,-0.83
2022-11-13T05:36:18.704Z,-0.77
2022-11-13T05:48:41.382Z,-0.61
2022-11-13T05:52:13.791Z,-0.58
2022-11-13T05:55:55.550Z,-0.55
2022-11-13T05:59:31.231Z,-0.47
2022-11-13T06:07:02.099Z,0.13
2022-11-13T06:10:43.498Z,0.32
2022-11-13T06:14:44.586Z,0.61
2022-11-13T06:18:06.492Z,0.42
2022-11-13T06:21:40.925Z,0.32
2022-11-13T06:26:18.141Z,0.17
2022-11-13T06:29:23.974Z,0.07
2022-11-13T06:33:26.342Z,-0.02
2022-11-13T06:37:15.291Z,-0.09
2022-11-13T06:40:44.893Z,-0.15
2022-11-13T06:44:06.694Z,-0.13
2022-11-13T06:47:58.164Z,0.11
2022-11-13T06:51:42.869Z,0.38
2022-11-13T06:55:04.680Z,0.48
2022-11-13T06:58:26.886Z,0.62
2022-11-13T07:01:52.555Z,0.56
2022-11-13T07:05:14.301Z,0.49
2022-11-13T07:08:56.623Z,0.42
2022-11-13T07:12:21.591Z,0.32
2022-11-13T07:15:43.353Z,0.22
2022-11-13T07:19:06.082Z,0.19
2022-11-13T07:22:36.752Z,0.11
2022-11-13T07:26:10.426Z,0.06
2022-11-13T07:30:09.636Z,0.03
2022-11-13T07:34:20.039Z,-0.04
2022-11-13T07:38:06.925Z,-0.03
2022-11-13T07:42:14.957Z,-0.04
2022-11-13T07:54:40.763Z,-0.57
2022-11-13T07:58:22.013Z,-0.75
2022-11-13T08:02:09.936Z,-0.90
2022-11-13T08:10:09.749Z,-1.10
2022-11-13T08:36:34.306Z,-1.72
2022-11-13T08:39:58.569Z,-1.79
2022-11-13T08:43:39.419Z,-1.86
2022-11-13T08:49:07.179Z,-1.97
2022-11-13T09:01:20.594Z,-2.17
2022-11-13T09:05:07.512Z,-2.21
2022-11-13T09:15:10.116Z,-2.25
2022-11-13T09:19:09.433Z,-2.30
2022-11-13T09:29:41.455Z,-2.38
2022-11-13T09:33:48.994Z,-2.42
2022-11-13T09:45:02.579Z,-2.83
2022-11-13T09:58:02.866Z,-3.21
2022-11-13T10:02:34.164Z,-3.28
2022-11-13T10:06:24.366Z,-3.39
2022-11-13T10:10:30.538Z,-3.51
2022-11-13T10:14:00.778Z,-3.67
2022-11-13T10:17:32.992Z,-3.71
2022-11-13T10:29:49.689Z,-3.93
2022-11-13T10:33:44.029Z,-3.99
2022-11-13T10:37:34.256Z,-4.04
2022-11-13T10:41:05.500Z,-4.08
2022-11-13T10:44:29.601Z,-4.14
2022-11-13T10:48:07.939Z,-4.18
2022-11-13T10:52:11.307Z,-4.30
2022-11-13T10:55:38.681Z,-4.39
2022-11-13T10:59:17.653Z,-4.46
2022-11-13T11:03:26.096Z,-4.56
2022-11-13T11:07:18.425Z,-4.62
2022-11-13T11:10:36.895Z,-4.67
2022-11-13T11:14:19.396Z,-4.76
2022-11-13T11:17:45.848Z,-4.81
2022-11-13T11:21:43.257Z,-4.87
2022-11-13T11:25:41.727Z,-4.97
2022-11-13T11:29:31.005Z,-4.99
2022-11-13T11:33:13.776Z,-5.05
2022-11-13T11:36:51.466Z,-5.09
2022-11-13T11:40:34.612Z,-5.20
2022-11-13T11:44:16.017Z,-5.28
2022-11-13T11:48:20.578Z,-5.29
2022-11-13T11:52:06.653Z,-5.35
2022-11-13T11:55:32.881Z,-5.43
2022-11-13T11:59:27.072Z,-5.43
2022-11-13T12:03:19.113Z,-5.46
2022-11-13T12:07:06.519Z,-5.57
2022-11-13T12:10:38.006Z,-5.69
2022-11-13T12:14:06.658Z,-5.75
2022-11-13T12:17:49.456Z,-5.78
2022-11-13T12:21:45.494Z,-5.85
2022-11-13T12:26:04.000Z,-5.87
2022-11-13T12:29:28.708Z,-5.95
2022-11-13T12:33:28.251Z,-5.97
2022-11-13T12:36:54.832Z,-6.06
2022-11-13T12:40:44.429Z,-6.06
2022-11-13T12:44:31.428Z,-6.18
2022-11-13T12:47:53.602Z,-6.18
2022-11-13T12:51:18.177Z,-6.29
2022-11-13T12:54:44.088Z,-6.25
2022-11-13T12:58:25.503Z,-6.30
2022-11-13T13:02:12.602Z,-6.39
2022-11-13T13:05:55.728Z,-6.44
2022-11-13T13:09:53.873Z,-6.43
2022-11-13T13:13:45.611Z,-6.48
2022-11-13T13:17:16.449Z,-6.53
2022-11-13T13:20:41.027Z,-6.60
2022-11-13T13:24:27.060Z,-6.58
2022-11-13T13:28:56.814Z,-6.64
2022-11-13T13:32:46.357Z,-6.67
2022-11-13T13:36:17.086Z,-6.67
2022-11-13T13:40:03.235Z,-6.73
2022-11-13T13:43:34.368Z,-6.74
2022-11-13T13:47:04.868Z,-6.81
2022-11-13T13:51:29.341Z,-6.89
2022-11-13T13:54:31.147Z,-6.99
2022-11-13T13:58:08.121Z,-6.95
2022-11-13T14:02:09.224Z,-6.94
2022-11-13T14:05:36.874Z,-6.98
2022-11-13T14:09:10.991Z,-7.05
2022-11-13T14:12:32.710Z,-7.03
2022-11-13T14:16:13.689Z,-7.02
2022-11-13T14:19:42.812Z,-7.03
2022-11-13T14:23:05.046Z,-7.11
2022-11-13T14:26:28.805Z,-7.18
2022-11-13T14:30:03.412Z,-7.15
2022-11-13T14:33:45.447Z,-7.11
2022-11-13T14:37:24.958Z,-7.08
2022-11-13T14:40:52.549Z,-7.06
2022-11-13T14:44:58.722Z,-7.13
2022-11-13T14:48:24.931Z,-7.18
2022-11-13T14:52:05.404Z,-7.30
2022-11-13T14:55:33.823Z,-7.39
2022-11-13T14:59:38.653Z,-7.54
2022-11-13T15:07:12.627Z,-7.91
2022-11-13T15:12:47.651Z,-8.02
2022-11-13T15:15:37.959Z,-8.02
2022-11-13T15:23:15.966Z,-8.16
2022-11-13T15:27:03.750Z,-8.27
2022-11-13T15:30:28.561Z,-8.42
2022-11-13T15:33:52.864Z,-8.52
2022-11-13T15:37:17.088Z,-8.62
2022-11-13T15:40:48.235Z,-8.72
2022-11-13T15:44:39.312Z,-8.75
2022-11-13T15:52:53.053Z,-8.91
2022-11-13T15:57:11.338Z,-8.88
2022-11-13T16:00:32.555Z,-8.86
2022-11-13T16:04:04.327Z,-8.93
2022-11-13T16:42:21.267Z,-9.42
2022-11-13T16:45:45.468Z,-9.44
2022-11-13T16:49:21.017Z,-9.30
2022-11-13T16:53:15.588Z,-9.45
2022-11-13T16:57:15.102Z,-9.51
2022-11-13T17:00:50.581Z,-9.55
2022-11-13T17:08:31.115Z,-9.52
2022-11-13T17:12:03.904Z,-9.63
2022-11-13T17:19:09.209Z,-9.68
2022-11-13T17:27:03.650Z,-9.92
2022-11-13T17:47:13.095Z,-9.97
2022-11-13T17:51:25.990Z,-9.93
2022-11-13T17:55:15.070Z,-9.80
2022-11-13T17:58:41.313Z,-9.89
2022-11-13T18:02:33.885Z,-9.99
2022-11-13T18:08:19.108Z,-10.23
2022-11-13T18:10:50.587Z,-10.35
2022-11-13T18:14:29.417Z,-10.45
2022-11-13T18:18:46.531Z,-10.38
2022-11-13T18:22:30.150Z,-10.44
2022-11-13T18:25:53.399Z,-10.51
2022-11-13T18:29:19.484Z,-10.41
2022-11-13T18:33:53.887Z,-10.58
2022-11-13T18:36:50.564Z,-10.79
2022-11-13T18:41:18.064Z,-10.79
2022-11-13T18:44:10.148Z,-10.72
2022-11-13T18:47:48.144Z,-10.65
2022-11-13T18:51:17.748Z,-10.71
2022-11-13T18:54:55.844Z,-10.66
2022-11-13T18:58:20.776Z,-10.62
2022-11-13T19:01:42.970Z,-10.55
2022-11-13T19:05:09.271Z,-10.65
2022-11-13T19:08:40.652Z,-10.59
2022-11-13T19:12:14.728Z,-10.68
2022-11-13T19:15:38.383Z,-10.75
2022-11-13T19:19:29.155Z,-10.65
2022-11-13T19:23:09.433Z,-10.61
2022-11-13T19:36:07.183Z,-10.73
2022-11-13T19:40:59.524Z,-10.86
2022-11-13T19:47:31.112Z,-10.80
2022-11-13T19:50:57.636Z,-10.91
2022-11-13T19:58:29.213Z,-11.06
2022-11-13T20:01:55.668Z,-11.20
2022-11-13T20:06:48.673Z,-11.17
2022-11-13T20:09:20.167Z,-11.06
2022-11-13T20:13:16.696Z,-11.00
2022-11-13T20:16:46.670Z,-11.11
2022-11-13T20:20:13.404Z,-11.18
2022-11-13T20:23:38.209Z,-11.20
2022-11-13T20:27:11.275Z,-11.20
2022-11-13T20:30:37.666Z,-11.24
2022-11-13T20:34:09.663Z,-11.23
2022-11-13T20:37:52.443Z,-11.14
2022-11-13T20:41:14.510Z,-11.06
2022-11-13T20:44:40.286Z,-11.01
2022-11-13T20:49:04.699Z,-11.11
2022-11-13T20:53:14.887Z,-11.11
2022-11-13T20:56:36.666Z,-11.28
2022-11-13T21:00:02.488Z,-11.30
2022-11-13T21:03:24.254Z,-11.45
2022-11-13T21:06:48.631Z,-11.53
2022-11-13T21:10:30.129Z,-11.56
2022-11-13T21:13:54.300Z,-11.69
2022-11-13T21:17:20.444Z,-11.77
2022-11-13T21:20:45.147Z,-11.83
2022-11-13T21:24:09.606Z,-11.87
2022-11-13T21:27:36.813Z,-11.80
2022-11-13T21:31:23.515Z,-11.69
2022-11-13T21:34:47.252Z,-11.53
2022-11-13T21:38:29.164Z,-11.45
2022-11-13T21:41:54.053Z,-11.58
2022-11-13T21:45:20.642Z,-11.62
2022-11-13T21:48:57.733Z,-11.62
2022-11-13T21:53:05.491Z,-11.70
2022-11-13T22:00:58.985Z,-11.76
2022-11-13T22:08:42.177Z,-11.93
2022-11-13T22:12:09.314Z,-11.95
2022-11-13T22:15:31.278Z,-11.89
2022-11-13T22:19:00.015Z,-12.07
2022-11-13T22:22:21.296Z,-12.07
2022-11-13T22:29:57.572Z,-12.18
2022-11-13T22:33:19.535Z,-12.22
2022-11-13T22:36:46.642Z,-12.17
2022-11-13T22:40:19.357Z,-12.14
2022-11-13T22:48:04.746Z,-12.11
2022-11-13T22:51:28.677Z,-12.21
2022-11-13T22:54:50.139Z,-12.21
2022-11-13T22:58:18.499Z,-12.35
2022-11-13T23:01:44.668Z,-12.48
2022-11-13T23:05:18.943Z,-12.55
2022-11-13T23:08:41.242Z,-12.50
2022-11-13T23:12:03.304Z,-12.50
2022-11-13T23:15:25.486Z,-12.48
2022-11-13T23:22:38.626Z,-12.52
2022-11-13T23:26:02.958Z,-12.38
2022-11-13T23:34:45.453Z,-12.38
2022-11-13T23:38:07.790Z,-12.48
2022-11-13T23:43:17.371Z,-12.73
2022-11-13T23:46:01.635Z,-12.73
2022-11-13T23:49:36.434Z,-12.63
2022-11-13T23:53:19.491Z,-12.59
